Flight Track Log - Related Links

Times and Time Zones

All times are in EDT time to prevent confusion due to time zone crossing. See the LBQ792 flight status page for this flight to view local times or setup timezone preferences in your user account.

Time Position Orientation Groundspeed Altitude Reporting Facility
EDT Latitude Longitude Course Direction KTS MPH feet Rate Location/Type
Tue 09:24:00 PM 42.3781 -76.6977 30° Northeast  Level FlightAware Approximate
Tue 09:24:58 PM 42.4967 -76.6139 31° Northeast 234 269 7,000  Level Boston Center
Tue 09:25:00 PM 42.4165 -76.6671 30° Northeast  Level FlightAware Approximate
Tue 09:25:16 PM 42.5139 -76.6008 29° Northeast 234 269 7,000  Level Boston Center
Tue 09:26:00 PM 42.4548 -76.6365 30° Northeast  Level FlightAware Approximate
Tue 09:26:16 PM 42.5678 -76.5536 33° Northeast 234 269 7,000  Level Boston Center
Tue 09:27:00 PM 42.4932 -76.6059 31° Northeast  Level FlightAware Approximate
Tue 09:27:17 PM 42.6256 -76.5125 28° Northeast 235 270 7,000  Level Boston Center
Tue 09:28:00 PM 42.5316 -76.5752 31° Northeast  Level FlightAware Approximate
Tue 09:28:18 PM 42.6792 -76.4650 33° Northeast 236 272 7,000  Level Boston Center
Tue 09:29:00 PM 42.5699 -76.5444 31° Northeast  Level FlightAware Approximate
Tue 09:29:18 PM 42.7353 -76.4178 32° Northeast 236 272 7,000  Level Boston Center
Tue 09:30:00 PM 42.6082 -76.5137 31° Northeast  Level FlightAware Approximate
Tue 09:30:19 PM 42.7975 -76.3681 30° Northeast 236 272 7,000  Level Boston Center
Tue 09:31:20 PM 42.8553 -76.3236 29° Northeast 245 282 5,800 -1,240 Descending Boston Center
Tue 09:32:20 PM 42.9153 -76.2736 31° Northeast 255 293 4,500 -1,289 Descending Boston Center
Tue 09:33:21 PM 42.9714 -76.2175 36° Northeast 246 283 3,200 -787 Descending Boston Center
Tue 09:34:22 PM 43.0231 -76.1639 37° Northeast 236 272 2,900 -347 Descending Boston Center
Tue 09:35:22 PM 43.0644 -76.1150 41° Northeast 184 212 2,500 -843 Descending Boston Center
Tue 09:36:23 PM 43.0903 -76.0853 40° Northeast 85 98 1,200 -1,279 Descending Boston Center
Tue 09:38:00 PM 43.1000 -76.1000 26° Northeast  Level FlightAware Approximate
Tue 09:45:00 PM 43.1112 -76.1063 26° Northeast  Level Estimated
Tue 09:46:00 PM 43.1112 -76.1063 26° Northeast  Level Estimated
Tue 09:47:00 PM 43.1112 -76.1063 26° Northeast  Level Estimated
Tue 09:48:00 PM 43.1112 -76.1063 26° Northeast  Level Estimated
Tue 09:49:00 PM 43.1112 -76.1063 26° Northeast  Level Estimated

Login

Don't have an account? Register now (free) for customized features, flight alerts, and more!